createdAt,value
2023-01-27T00:02:42.418Z,81.80
2023-01-27T00:08:10.117Z,81.65
2023-01-27T00:13:37.235Z,81.69
2023-01-27T00:19:05.329Z,82.28
2023-01-27T00:24:39.195Z,82.00
2023-01-27T00:30:06.573Z,83.14
2023-01-27T00:35:34.873Z,83.46
2023-01-27T00:41:20.260Z,84.28
2023-01-27T00:46:47.277Z,84.34
2023-01-27T00:52:16.083Z,84.68
2023-01-27T00:57:43.350Z,84.28
2023-01-27T01:03:11.600Z,85.05
2023-01-27T01:08:39.962Z,85.72
2023-01-27T01:14:07.457Z,85.23
2023-01-27T01:19:35.302Z,85.38
2023-01-27T01:25:03.159Z,85.26
2023-01-27T01:30:31.103Z,85.16
2023-01-27T01:36:04.186Z,85.15
2023-01-27T01:41:31.410Z,85.25
2023-01-27T01:46:59.045Z,84.85
2023-01-27T01:52:26.732Z,84.56
2023-01-27T01:57:54.435Z,84.74
2023-01-27T02:03:26.331Z,84.32
2023-01-27T02:08:55.043Z,84.94
2023-01-27T02:14:22.502Z,84.90
2023-01-27T02:20:06.707Z,84.15
2023-01-27T02:25:34.748Z,84.73
2023-01-27T02:31:02.605Z,84.46
2023-01-27T02:36:35.000Z,84.23
2023-01-27T02:42:05.678Z,84.49
2023-01-27T02:47:34.672Z,84.55
2023-01-27T02:53:02.403Z,84.92
2023-01-27T02:58:29.602Z,84.85
2023-01-27T03:04:04.139Z,85.02
2023-01-27T03:09:31.762Z,84.50
2023-01-27T03:15:19.692Z,84.58
2023-01-27T03:20:49.533Z,85.28
2023-01-27T03:26:16.621Z,84.75
2023-01-27T03:31:47.428Z,85.09
2023-01-27T03:37:33.382Z,84.71
2023-01-27T03:43:20.673Z,85.09
2023-01-27T03:48:52.360Z,85.48
2023-01-27T03:54:19.976Z,85.35
2023-01-27T03:59:47.692Z,85.05
2023-01-27T04:05:33.319Z,85.63
2023-01-27T04:11:23.382Z,85.49
2023-01-27T04:16:52.996Z,85.18
2023-01-27T04:22:20.644Z,85.45
2023-01-27T04:27:47.622Z,85.42
2023-01-27T04:33:16.003Z,85.68
2023-01-27T04:38:43.661Z,85.75
2023-01-27T04:44:12.809Z,85.49
2023-01-27T04:49:39.672Z,85.77
2023-01-27T04:55:07.224Z,85.36
2023-01-27T05:00:45.195Z,85.96
2023-01-27T05:06:13.364Z,85.61
2023-01-27T05:11:40.865Z,85.02
2023-01-27T05:17:07.755Z,85.15
2023-01-27T05:22:34.775Z,85.19
2023-01-27T05:28:01.768Z,84.94
2023-01-27T05:33:28.926Z,84.50
2023-01-27T05:38:56.564Z,85.07
2023-01-27T05:44:24.029Z,84.78
2023-01-27T05:49:50.954Z,84.40
2023-01-27T05:55:17.980Z,84.41
2023-01-27T06:00:45.699Z,84.83
2023-01-27T06:06:14.292Z,84.72
2023-01-27T06:11:41.715Z,84.39
2023-01-27T06:17:09.165Z,84.23
2023-01-27T06:22:36.846Z,84.42
2023-01-27T06:28:04.187Z,84.61
2023-01-27T06:33:32.137Z,84.92
2023-01-27T06:38:59.068Z,85.05
2023-01-27T06:44:25.966Z,84.70
2023-01-27T06:49:53.100Z,84.74
2023-01-27T06:55:20.201Z,85.11
2023-01-27T07:00:48.424Z,85.27
2023-01-27T07:06:19.196Z,85.09
2023-01-27T07:11:46.541Z,85.14
2023-01-27T07:17:13.988Z,85.66
2023-01-27T07:22:41.056Z,85.76
2023-01-27T07:28:08.178Z,85.12
2023-01-27T07:33:35.145Z,85.35
2023-01-27T07:39:02.518Z,85.49
2023-01-27T07:44:30.487Z,85.13
2023-01-27T07:49:58.269Z,84.81
2023-01-27T07:55:25.406Z,85.05
2023-01-27T08:00:53.181Z,84.80
2023-01-27T08:06:20.542Z,85.03
2023-01-27T08:11:47.969Z,84.86
2023-01-27T08:17:15.077Z,84.76
2023-01-27T08:22:42.605Z,84.40
2023-01-27T08:28:10.198Z,84.63
2023-01-27T08:33:39.009Z,84.50
2023-01-27T08:39:06.366Z,84.62
2023-01-27T08:44:33.316Z,84.35
2023-01-27T08:50:00.641Z,84.65
2023-01-27T08:55:32.717Z,85.39
2023-01-27T09:01:02.796Z,85.25
2023-01-27T09:06:30.616Z,84.72
2023-01-27T09:11:58.596Z,84.39
2023-01-27T09:17:26.076Z,84.21
2023-01-27T09:22:55.792Z,84.33
2023-01-27T09:28:23.218Z,84.16
2023-01-27T09:33:50.609Z,84.27
2023-01-27T09:39:20.306Z,84.68
2023-01-27T09:45:16.576Z,84.22
2023-01-27T09:50:46.773Z,84.12
2023-01-27T09:56:30.097Z,84.27
2023-01-27T10:02:05.664Z,84.35
2023-01-27T10:07:56.956Z,84.71
2023-01-27T10:13:49.034Z,85.06
2023-01-27T10:19:31.610Z,84.39
2023-01-27T10:25:08.968Z,84.45
2023-01-27T10:30:38.079Z,84.47
2023-01-27T10:36:19.336Z,84.52
2023-01-27T10:42:01.261Z,84.46
2023-01-27T10:48:04.775Z,84.24
2023-01-27T10:53:43.311Z,84.18
2023-01-27T10:59:11.051Z,84.52
2023-01-27T11:04:45.976Z,84.22
2023-01-27T11:10:20.537Z,84.48
2023-01-27T11:15:48.083Z,86.17
2023-01-27T11:21:21.217Z,85.72
2023-01-27T11:27:26.035Z,85.81
2023-01-27T11:33:37.364Z,86.34
2023-01-27T11:39:06.830Z,85.82
2023-01-27T11:44:35.464Z,86.51
2023-01-27T11:50:04.767Z,86.61
2023-01-27T11:55:38.616Z,87.23
2023-01-27T12:01:48.261Z,86.74
2023-01-27T12:07:41.013Z,87.01
2023-01-27T12:13:10.404Z,85.80
2023-01-27T12:18:51.469Z,86.28
2023-01-27T12:24:28.435Z,86.14
2023-01-27T12:30:00.617Z,86.07
2023-01-27T12:35:36.798Z,86.25
2023-01-27T12:41:09.959Z,85.67
2023-01-27T12:46:42.725Z,85.42
2023-01-27T12:52:18.778Z,85.35
2023-01-27T12:57:46.047Z,84.97
2023-01-27T13:03:13.107Z,85.92
2023-01-27T13:08:42.138Z,85.84
2023-01-27T13:14:19.204Z,85.76
2023-01-27T13:19:50.626Z,85.88
2023-01-27T13:25:23.796Z,85.66
2023-01-27T13:30:56.785Z,85.21
2023-01-27T13:36:52.696Z,85.36
2023-01-27T13:42:23.255Z,85.44
2023-01-27T13:48:01.716Z,84.80
2023-01-27T13:53:29.726Z,85.52
2023-01-27T13:59:22.337Z,85.53
2023-01-27T14:05:08.017Z,85.49
2023-01-27T14:11:08.889Z,85.61
2023-01-27T14:16:56.927Z,85.62
2023-01-27T14:22:58.376Z,85.23
2023-01-27T14:28:30.190Z,85.89
2023-01-27T14:34:24.827Z,85.76
2023-01-27T14:40:00.164Z,85.41
2023-01-27T14:45:27.786Z,85.66
2023-01-27T14:51:16.933Z,85.47
2023-01-27T14:57:19.296Z,85.90
2023-01-27T15:03:33.084Z,85.78
2023-01-27T15:09:19.391Z,85.55
2023-01-27T15:15:06.486Z,85.54
2023-01-27T15:21:10.256Z,85.09
2023-01-27T15:26:39.129Z,85.67
2023-01-27T15:32:17.014Z,85.79
2023-01-27T15:38:17.830Z,85.33
2023-01-27T15:44:23.227Z,84.95
2023-01-27T15:50:01.456Z,85.11
2023-01-27T15:55:35.206Z,84.70
2023-01-27T16:01:05.624Z,84.86
2023-01-27T16:06:34.607Z,84.86
2023-01-27T16:12:06.101Z,84.40
2023-01-27T16:17:36.727Z,84.41
2023-01-27T16:23:40.175Z,84.77
2023-01-27T16:29:46.935Z,84.82
2023-01-27T16:35:19.754Z,84.41
2023-01-27T16:40:53.797Z,84.76
2023-01-27T16:46:31.494Z,84.96
2023-01-27T16:52:02.465Z,84.63
2023-01-27T16:57:37.222Z,84.71
2023-01-27T17:03:11.704Z,84.67
2023-01-27T17:08:45.507Z,84.73
2023-01-27T17:14:28.607Z,84.76
2023-01-27T17:20:07.176Z,85.36
2023-01-27T17:25:39.078Z,85.15
2023-01-27T17:31:08.877Z,84.54
2023-01-27T17:36:36.408Z,84.99
2023-01-27T17:42:06.024Z,84.37
2023-01-27T17:47:34.356Z,85.06
2023-01-27T17:53:08.812Z,84.97
2023-01-27T17:58:36.038Z,85.43
2023-01-27T18:04:06.360Z,85.06
2023-01-27T18:09:35.828Z,85.05
2023-01-27T18:15:37.078Z,85.31
2023-01-27T18:21:06.320Z,86.01
2023-01-27T18:26:41.938Z,85.52
2023-01-27T18:32:17.753Z,86.25
2023-01-27T18:37:53.772Z,85.98
2023-01-27T18:43:20.822Z,86.18
2023-01-27T18:48:48.849Z,86.17
2023-01-27T18:54:15.704Z,86.29
2023-01-27T18:59:43.311Z,86.25
2023-01-27T19:05:20.889Z,86.55
2023-01-27T19:10:48.948Z,86.68
2023-01-27T19:16:18.248Z,86.96
2023-01-27T19:21:46.835Z,86.84
2023-01-27T19:27:16.527Z,86.85
2023-01-27T19:32:44.157Z,86.25
2023-01-27T19:38:12.864Z,86.75
2023-01-27T19:43:42.114Z,86.75
2023-01-27T19:49:18.416Z,86.35
2023-01-27T19:54:46.197Z,85.76
2023-01-27T20:00:35.607Z,86.25
2023-01-27T20:06:03.364Z,85.65
2023-01-27T20:11:33.798Z,85.80
2023-01-27T20:17:01.836Z,85.55
2023-01-27T20:22:29.488Z,85.45
2023-01-27T20:27:59.399Z,85.56
2023-01-27T20:33:27.677Z,84.82
2023-01-27T20:38:55.193Z,84.98
2023-01-27T20:44:22.786Z,84.75
2023-01-27T20:49:50.719Z,85.22
2023-01-27T20:55:22.739Z,84.53
2023-01-27T21:00:50.462Z,84.56
2023-01-27T21:06:21.943Z,84.56
2023-01-27T21:11:49.545Z,84.56
2023-01-27T21:17:17.625Z,84.66
2023-01-27T21:22:45.929Z,84.96
2023-01-27T21:28:13.487Z,84.76
2023-01-27T21:33:41.566Z,84.86
2023-01-27T21:39:09.323Z,85.33
2023-01-27T21:44:55.303Z,85.96
2023-01-27T21:50:22.635Z,86.07
2023-01-27T21:55:50.440Z,86.29
2023-01-27T22:01:20.022Z,85.95
2023-01-27T22:06:47.045Z,86.21
2023-01-27T22:12:16.384Z,86.49
2023-01-27T22:17:44.419Z,86.46
2023-01-27T22:23:11.717Z,86.63
2023-01-27T22:28:39.416Z,86.50
2023-01-27T22:34:07.871Z,85.96
2023-01-27T22:39:35.220Z,86.49
2023-01-27T22:45:02.776Z,86.20
2023-01-27T22:50:30.857Z,86.73
2023-01-27T22:56:03.243Z,86.98
2023-01-27T23:01:30.436Z,86.54
2023-01-27T23:06:57.370Z,86.52
2023-01-27T23:12:24.537Z,86.20
2023-01-27T23:17:51.835Z,86.19
2023-01-27T23:23:20.689Z,85.66
2023-01-27T23:28:47.541Z,85.49
2023-01-27T23:34:14.582Z,85.69
2023-01-27T23:39:45.987Z,85.31
2023-01-27T23:45:13.816Z,84.92
2023-01-27T23:50:41.836Z,85.34
2023-01-27T23:56:12.135Z,84.88
